createdAt,value
2023-03-24T00:02:00.344Z,10.82
2023-03-24T00:04:28.559Z,10.60
2023-03-24T00:06:55.691Z,10.57
2023-03-24T00:09:22.606Z,10.50
2023-03-24T00:11:49.556Z,11.10
2023-03-24T00:14:16.430Z,10.50
2023-03-24T00:16:43.393Z,11.90
2023-03-24T00:19:13.709Z,10.82
2023-03-24T00:21:42.146Z,10.25
2023-03-24T00:24:09.997Z,11.15
2023-03-24T00:26:39.359Z,11.10
2023-03-24T00:29:09.385Z,11.15
2023-03-24T00:31:40.117Z,11.20
2023-03-24T00:34:10.423Z,11.50
2023-03-24T00:36:37.581Z,11.75
2023-03-24T00:39:06.454Z,13.32
2023-03-24T00:41:34.137Z,12.60
2023-03-24T00:44:04.023Z,12.98
2023-03-24T00:46:31.240Z,14.77
2023-03-24T00:49:07.703Z,13.73
2023-03-24T00:51:40.393Z,13.27
2023-03-24T00:54:09.748Z,13.43
2023-03-24T00:56:40.478Z,14.27
2023-03-24T00:59:09.999Z,15.00
2023-03-24T01:01:41.028Z,13.48
2023-03-24T01:04:08.722Z,13.52
2023-03-24T01:06:38.473Z,12.98
2023-03-24T01:09:06.737Z,14.23
2023-03-24T01:11:40.399Z,12.98
2023-03-24T01:14:08.813Z,14.32
2023-03-24T01:16:36.235Z,12.73
2023-03-24T01:19:03.897Z,11.60
2023-03-24T01:21:31.965Z,10.98
2023-03-24T01:23:59.091Z,10.63
2023-03-24T01:26:26.029Z,11.73
2023-03-24T01:28:52.989Z,11.27
2023-03-24T01:31:19.925Z,10.82
2023-03-24T01:33:46.863Z,12.57
2023-03-24T01:36:14.063Z,12.55
2023-03-24T01:38:41.521Z,12.48
2023-03-24T01:41:08.678Z,12.18
2023-03-24T01:43:36.458Z,11.77
2023-03-24T01:46:09.509Z,11.48
2023-03-24T01:48:59.140Z,11.40
2023-03-24T01:51:31.646Z,11.75
2023-03-24T01:54:22.734Z,11.75
2023-03-24T01:56:58.250Z,11.45
2023-03-24T01:59:29.149Z,11.63
2023-03-24T02:02:10.077Z,12.80
2023-03-24T02:04:48.563Z,12.27
2023-03-24T02:07:22.997Z,12.15
2023-03-24T02:09:50.086Z,11.77
2023-03-24T02:12:17.189Z,12.95
2023-03-24T02:14:44.584Z,12.02
2023-03-24T02:20:49.442Z,12.88
2023-03-24T02:23:34.968Z,12.10
2023-03-24T02:26:19.407Z,11.43
2023-03-24T02:28:58.557Z,12.75
2023-03-24T02:31:47.359Z,12.73
2023-03-24T02:34:45.111Z,11.50
2023-03-24T02:40:17.878Z,11.68
2023-03-24T02:43:06.976Z,12.68
2023-03-24T02:45:48.017Z,12.38
2023-03-24T02:48:15.087Z,12.35
2023-03-24T02:50:55.712Z,11.63
2023-03-24T02:53:22.840Z,12.57
2023-03-24T02:58:54.332Z,13.43
2023-03-24T03:01:39.113Z,12.52
2023-03-24T03:04:52.505Z,15.50
2023-03-24T03:07:25.574Z,14.70
2023-03-24T03:10:00.249Z,14.52
2023-03-24T03:12:39.475Z,11.00
2023-03-24T03:15:14.098Z,16.50
2023-03-24T03:17:53.378Z,17.13
2023-03-24T03:20:24.519Z,22.13
2023-03-24T03:22:58.153Z,22.23
2023-03-24T03:25:30.681Z,19.48
2023-03-24T03:28:02.401Z,23.23
2023-03-24T03:30:43.871Z,20.35
2023-03-24T03:33:28.173Z,15.18
2023-03-24T03:36:06.600Z,15.43
2023-03-24T03:38:49.707Z,16.52
2023-03-24T03:41:18.527Z,16.95
2023-03-24T03:43:49.510Z,19.25
2023-03-24T03:46:18.440Z,21.02
2023-03-24T03:48:48.733Z,23.30
2023-03-24T03:51:16.491Z,24.05
2023-03-24T03:53:54.688Z,22.70
2023-03-24T03:56:27.310Z,25.27
2023-03-24T03:59:35.770Z,24.55
2023-03-24T04:02:30.031Z,25.55
2023-03-24T04:05:28.320Z,26.73
2023-03-24T04:08:22.229Z,24.05
2023-03-24T04:11:20.071Z,22.98
2023-03-24T04:14:26.817Z,23.23
2023-03-24T04:17:14.121Z,19.70
2023-03-24T04:20:12.755Z,22.38
2023-03-24T04:22:54.347Z,17.92
2023-03-24T04:25:50.045Z,20.08
2023-03-24T04:28:27.460Z,23.05
2023-03-24T04:31:07.596Z,27.23
2023-03-24T04:33:58.516Z,27.67
2023-03-24T04:36:34.508Z,31.08
2023-03-24T04:39:25.737Z,40.58
2023-03-24T04:41:54.349Z,35.17
2023-03-24T04:44:27.473Z,30.10
2023-03-24T04:47:24.351Z,35.25
2023-03-24T04:50:12.509Z,30.90
2023-03-24T04:52:41.402Z,34.58
2023-03-24T04:55:27.894Z,29.90
2023-03-24T04:57:55.200Z,24.85
2023-03-24T05:00:22.268Z,28.35
2023-03-24T05:02:49.281Z,27.77
2023-03-24T05:05:23.154Z,32.10
2023-03-24T05:07:50.196Z,23.65
2023-03-24T05:10:20.081Z,22.90
2023-03-24T05:12:53.148Z,20.90
2023-03-24T05:15:26.239Z,21.50
2023-03-24T05:17:59.805Z,18.42
2023-03-24T05:20:27.649Z,20.33
2023-03-24T05:23:02.075Z,20.05
2023-03-24T05:25:29.040Z,20.13
2023-03-24T05:27:56.149Z,21.55
2023-03-24T05:30:26.113Z,22.73
2023-03-24T05:33:00.616Z,21.95
2023-03-24T05:35:28.420Z,20.90
2023-03-24T05:37:55.372Z,20.98
2023-03-24T05:40:22.380Z,21.60
2023-03-24T05:42:57.120Z,21.70
2023-03-24T05:45:27.296Z,23.13
2023-03-24T05:47:54.799Z,21.02
2023-03-24T05:50:31.850Z,22.08
2023-03-24T05:52:58.852Z,20.75
2023-03-24T05:55:53.802Z,22.40
2023-03-24T05:58:59.386Z,19.23
2023-03-24T06:01:48.373Z,21.35
2023-03-24T06:04:30.658Z,20.15
2023-03-24T06:07:04.700Z,21.33
2023-03-24T06:09:37.659Z,21.40
2023-03-24T06:12:06.264Z,22.13
2023-03-24T06:14:36.377Z,20.63
2023-03-24T06:17:09.043Z,20.75
2023-03-24T06:19:38.691Z,21.77
2023-03-24T06:22:18.104Z,21.58
2023-03-24T06:24:47.160Z,21.65
2023-03-24T06:27:14.715Z,21.38
2023-03-24T06:29:45.049Z,20.60
2023-03-24T06:32:13.880Z,20.55
2023-03-24T06:34:45.182Z,20.02
2023-03-24T06:37:32.303Z,19.70
2023-03-24T06:40:01.825Z,20.05
2023-03-24T06:42:31.886Z,19.85
2023-03-24T06:44:58.953Z,20.63
2023-03-24T06:47:26.210Z,20.90
2023-03-24T06:49:53.649Z,19.95
2023-03-24T06:52:20.757Z,19.70
2023-03-24T06:54:47.804Z,18.60
2023-03-24T06:57:14.901Z,18.17
2023-03-24T07:00:09.193Z,18.20
2023-03-24T07:02:46.700Z,18.20
2023-03-24T07:05:13.762Z,18.95
2023-03-24T07:10:46.268Z,17.75
2023-03-24T07:13:13.765Z,18.63
2023-03-24T07:15:41.523Z,17.80
2023-03-24T07:18:10.579Z,17.02
2023-03-24T07:20:41.576Z,16.70
2023-03-24T07:23:14.519Z,16.83
2023-03-24T07:26:00.674Z,14.35
2023-03-24T07:28:42.581Z,17.80
2023-03-24T07:31:11.292Z,17.95
2023-03-24T07:33:40.194Z,16.73
2023-03-24T07:36:08.292Z,16.65
2023-03-24T07:38:37.483Z,15.93
2023-03-24T07:41:09.110Z,15.85
2023-03-24T07:43:40.152Z,15.85
2023-03-24T07:46:20.050Z,16.73
2023-03-24T07:48:47.358Z,15.90
2023-03-24T07:51:18.127Z,14.45
2023-03-24T07:54:05.367Z,14.23
2023-03-24T07:56:42.077Z,15.20
2023-03-24T07:59:11.403Z,15.60
2023-03-24T08:05:22.455Z,15.18
2023-03-24T08:07:58.231Z,14.75
2023-03-24T08:10:29.828Z,15.25
2023-03-24T08:12:58.442Z,14.60
2023-03-24T08:15:27.185Z,13.82
2023-03-24T08:17:56.650Z,13.95
2023-03-24T08:20:25.158Z,14.77
2023-03-24T08:22:54.401Z,14.00
2023-03-24T08:25:25.273Z,11.43
2023-03-24T08:27:52.632Z,11.68
2023-03-24T08:30:22.621Z,12.23
2023-03-24T08:32:54.980Z,11.82
2023-03-24T08:35:24.897Z,10.45
2023-03-24T08:37:52.839Z,10.90
2023-03-24T08:40:23.582Z,10.40
2023-03-24T08:42:53.292Z,9.93
2023-03-24T08:45:23.951Z,10.68
2023-03-24T08:47:52.615Z,9.02
2023-03-24T08:50:24.003Z,8.98
2023-03-24T08:52:50.979Z,7.28
2023-03-24T08:55:19.551Z,8.00
2023-03-24T08:57:47.107Z,8.20
2023-03-24T09:00:16.481Z,6.22
2023-03-24T09:02:49.450Z,6.97
2023-03-24T09:05:24.571Z,6.63
2023-03-24T09:07:57.193Z,5.85
2023-03-24T09:10:24.256Z,5.72
2023-03-24T09:12:51.606Z,5.75
2023-03-24T09:15:18.717Z,5.90
2023-03-24T09:17:45.797Z,6.05
2023-03-24T09:20:16.185Z,5.38
2023-03-24T09:22:47.701Z,5.03
2023-03-24T09:25:18.112Z,5.57
2023-03-24T09:27:46.596Z,4.82
2023-03-24T09:30:15.751Z,4.90
2023-03-24T09:32:42.809Z,4.80
2023-03-24T09:35:10.215Z,5.15
2023-03-24T09:37:39.087Z,4.88
2023-03-24T09:40:08.000Z,5.10
2023-03-24T09:42:41.470Z,4.32
2023-03-24T09:45:16.809Z,4.88
2023-03-24T09:47:50.768Z,4.70
2023-03-24T09:50:50.264Z,4.85
2023-03-24T09:53:42.079Z,4.57
2023-03-24T09:56:15.058Z,4.85
2023-03-24T09:58:43.778Z,4.60
2023-03-24T10:01:18.035Z,4.88
2023-03-24T10:03:46.777Z,5.05
2023-03-24T10:06:26.076Z,4.65
2023-03-24T10:09:13.289Z,5.22
2023-03-24T10:11:43.243Z,5.05
2023-03-24T10:14:13.134Z,5.32
2023-03-24T10:16:43.152Z,5.32
2023-03-24T10:19:41.272Z,4.53
2023-03-24T10:22:26.022Z,4.78
2023-03-24T10:25:31.714Z,4.85
2023-03-24T10:28:25.003Z,4.75
2023-03-24T10:30:56.067Z,5.32
2023-03-24T10:33:23.205Z,4.25
2023-03-24T10:36:11.086Z,4.80
2023-03-24T10:38:38.514Z,4.63
2023-03-24T10:41:05.937Z,4.93
2023-03-24T10:43:33.547Z,5.43
2023-03-24T10:46:02.914Z,4.68
2023-03-24T10:48:41.865Z,3.67
2023-03-24T10:51:14.460Z,4.22
2023-03-24T10:53:42.028Z,4.60
2023-03-24T10:56:13.750Z,4.47
2023-03-24T10:58:43.219Z,4.40
2023-03-24T11:01:31.211Z,4.50
2023-03-24T11:04:05.908Z,3.92
2023-03-24T11:06:34.056Z,4.65
2023-03-24T11:09:22.182Z,4.57
2023-03-24T11:11:50.916Z,3.80
2023-03-24T11:14:26.825Z,3.75
2023-03-24T11:17:07.881Z,3.97
2023-03-24T11:19:36.766Z,4.05
2023-03-24T11:22:06.841Z,4.20
2023-03-24T11:24:38.472Z,3.72
2023-03-24T11:27:06.184Z,4.00
2023-03-24T11:29:38.493Z,3.53
2023-03-24T11:32:13.888Z,4.03
2023-03-24T11:34:52.704Z,4.05
2023-03-24T11:37:22.421Z,3.83
2023-03-24T11:40:19.793Z,3.42
2023-03-24T11:42:51.126Z,3.60
2023-03-24T11:45:36.534Z,4.10
2023-03-24T11:48:26.592Z,4.18
2023-03-24T11:50:55.594Z,3.85
2023-03-24T11:53:27.510Z,3.72
2023-03-24T11:56:02.142Z,3.70
2023-03-24T11:59:09.425Z,4.25
2023-03-24T12:01:42.981Z,3.90
2023-03-24T12:04:22.056Z,3.53
2023-03-24T12:07:14.699Z,3.80
2023-03-24T12:10:13.641Z,3.65
2023-03-24T12:12:58.321Z,4.10
2023-03-24T12:15:32.770Z,4.65
2023-03-24T12:18:05.956Z,4.32
2023-03-24T12:21:04.725Z,3.90
2023-03-24T12:23:50.329Z,3.85
2023-03-24T12:26:22.184Z,3.45
2023-03-24T12:29:27.887Z,3.55
2023-03-24T12:32:24.475Z,3.90
2023-03-24T12:35:39.411Z,3.03
2023-03-24T12:38:24.746Z,3.85
2023-03-24T12:41:07.851Z,3.75
2023-03-24T12:44:16.726Z,3.45
2023-03-24T12:47:16.418Z,3.25
2023-03-24T12:50:00.148Z,3.38
2023-03-24T12:52:58.161Z,3.55
2023-03-24T12:55:49.723Z,3.15
2023-03-24T12:58:46.575Z,3.25
2023-03-24T13:01:53.053Z,3.90
2023-03-24T13:04:31.252Z,3.60
2023-03-24T13:07:05.821Z,4.18
2023-03-24T13:09:54.418Z,4.03
2023-03-24T13:12:46.600Z,3.40
2023-03-24T13:15:13.461Z,3.75
2023-03-24T13:17:44.982Z,3.35
2023-03-24T13:20:38.358Z,3.85
2023-03-24T13:23:17.749Z,3.40
2023-03-24T13:26:02.580Z,3.40
2023-03-24T13:28:38.638Z,3.20
2023-03-24T13:31:08.537Z,3.25
2023-03-24T13:33:38.422Z,3.38
2023-03-24T13:36:26.913Z,3.88
2023-03-24T13:38:57.371Z,3.38
2023-03-24T13:41:31.402Z,3.30
2023-03-24T13:44:02.554Z,3.00
2023-03-24T13:46:29.894Z,3.20
2023-03-24T13:48:59.132Z,3.40
2023-03-24T13:51:34.153Z,3.25
2023-03-24T13:54:27.939Z,3.20
2023-03-24T13:57:09.361Z,3.00
2023-03-24T13:59:57.038Z,3.55
2023-03-24T14:02:42.804Z,3.53
2023-03-24T14:05:34.865Z,3.08
2023-03-24T14:08:04.853Z,2.83
2023-03-24T14:10:45.337Z,3.38
2023-03-24T14:13:12.164Z,3.00
2023-03-24T14:15:57.382Z,2.90
2023-03-24T14:18:24.474Z,2.97
2023-03-24T14:20:58.072Z,2.75
2023-03-24T14:23:38.745Z,2.60
2023-03-24T14:26:08.732Z,2.50
2023-03-24T14:28:43.846Z,2.05
2023-03-24T14:31:15.780Z,2.72
2023-03-24T14:33:55.070Z,2.65
2023-03-24T14:36:40.184Z,2.30
2023-03-24T14:39:11.424Z,2.35
2023-03-24T14:41:41.426Z,2.40
2023-03-24T14:44:08.498Z,2.65
2023-03-24T14:46:48.567Z,2.33
2023-03-24T14:49:18.582Z,2.03
2023-03-24T14:52:11.289Z,1.80
2023-03-24T14:54:45.929Z,2.42
2023-03-24T14:57:32.445Z,2.20
2023-03-24T15:00:17.677Z,2.70
2023-03-24T15:02:45.678Z,2.45
2023-03-24T15:05:23.155Z,2.28
2023-03-24T15:08:21.784Z,2.40
2023-03-24T15:10:55.014Z,2.13
2023-03-24T15:13:30.949Z,2.55
2023-03-24T15:15:58.820Z,2.20
2023-03-24T15:18:25.903Z,2.10
2023-03-24T15:20:54.116Z,2.17
2023-03-24T15:23:24.868Z,2.20
2023-03-24T15:25:54.634Z,2.05
2023-03-24T15:28:30.671Z,1.92
2023-03-24T15:31:02.713Z,2.13
2023-03-24T15:33:31.417Z,1.83
2023-03-24T15:35:59.993Z,2.10
2023-03-24T15:38:32.336Z,2.22
2023-03-24T15:41:02.335Z,2.10
2023-03-24T15:43:29.458Z,2.22
2023-03-24T15:46:10.950Z,2.67
2023-03-24T15:48:39.366Z,2.47
2023-03-24T15:51:10.019Z,2.30
2023-03-24T15:53:42.123Z,2.45
2023-03-24T15:56:12.102Z,2.13
2023-03-24T15:58:52.599Z,2.35
2023-03-24T16:01:36.100Z,2.53
2023-03-24T16:04:12.101Z,2.40
2023-03-24T16:06:43.642Z,2.47
2023-03-24T16:09:16.217Z,2.45
2023-03-24T16:11:43.202Z,2.15
2023-03-24T16:14:30.659Z,2.35
2023-03-24T16:17:00.622Z,2.33
2023-03-24T16:19:28.690Z,2.30
2023-03-24T16:21:56.216Z,2.50
2023-03-24T16:24:25.724Z,2.42
2023-03-24T16:26:52.753Z,2.38
2023-03-24T16:29:22.014Z,2.50
2023-03-24T16:31:51.519Z,2.40
2023-03-24T16:34:20.318Z,2.60
2023-03-24T16:36:49.075Z,2.40
2023-03-24T16:39:28.005Z,2.95
2023-03-24T16:41:55.498Z,2.20
2023-03-24T16:44:22.549Z,2.65
2023-03-24T16:46:53.914Z,2.63
2023-03-24T16:49:22.041Z,2.50
2023-03-24T16:51:49.071Z,2.47
2023-03-24T16:54:16.044Z,2.72
2023-03-24T16:56:43.378Z,2.13
2023-03-24T16:59:12.614Z,2.58
2023-03-24T17:01:43.352Z,2.10
2023-03-24T17:04:17.690Z,2.20
2023-03-24T17:06:49.293Z,2.25
2023-03-24T17:09:17.399Z,2.22
2023-03-24T17:11:51.109Z,2.78
2023-03-24T17:14:18.387Z,3.72
2023-03-24T17:16:46.763Z,2.55
2023-03-24T17:19:16.601Z,2.30
2023-03-24T17:21:56.863Z,2.30
2023-03-24T17:24:24.297Z,2.22
2023-03-24T17:26:51.295Z,2.60
2023-03-24T17:29:18.277Z,3.20
2023-03-24T17:31:45.473Z,2.90
2023-03-24T17:36:44.653Z,2.90
2023-03-24T17:39:16.786Z,2.70
2023-03-24T17:41:44.317Z,3.08
2023-03-24T17:44:11.486Z,3.47
2023-03-24T17:46:38.499Z,2.90
2023-03-24T17:49:05.699Z,2.70
2023-03-24T17:51:32.888Z,3.13
2023-03-24T17:53:59.977Z,3.95
2023-03-24T17:56:27.058Z,3.60
2023-03-24T17:58:55.064Z,4.03
2023-03-24T18:01:22.296Z,4.20
2023-03-24T18:03:49.877Z,4.68
2023-03-24T18:06:17.228Z,5.20
2023-03-24T18:08:44.631Z,4.45
2023-03-24T18:11:14.661Z,4.38
2023-03-24T18:13:42.866Z,4.78
2023-03-24T18:16:20.698Z,4.95
2023-03-24T18:18:50.752Z,4.65
2023-03-24T18:21:19.005Z,5.63
2023-03-24T18:23:47.022Z,4.80
2023-03-24T18:26:15.873Z,4.80
2023-03-24T18:28:43.199Z,4.82
2023-03-24T18:31:12.929Z,5.00
2023-03-24T18:33:42.999Z,5.70
2023-03-24T18:36:10.898Z,4.90
2023-03-24T18:38:38.613Z,5.28
2023-03-24T18:41:07.707Z,4.93
2023-03-24T18:43:37.760Z,5.40
2023-03-24T18:46:09.459Z,7.43
2023-03-24T18:48:37.722Z,6.03
2023-03-24T18:51:06.004Z,6.32
2023-03-24T18:53:36.876Z,5.93
2023-03-24T18:56:06.124Z,6.97
2023-03-24T18:58:34.468Z,6.57
2023-03-24T19:01:13.273Z,6.88
2023-03-24T19:03:42.265Z,6.57
2023-03-24T19:06:11.396Z,7.65
2023-03-24T19:08:44.747Z,6.63
2023-03-24T19:11:13.906Z,6.88
2023-03-24T19:13:41.751Z,6.78
2023-03-24T19:16:10.614Z,6.80
2023-03-24T19:18:38.101Z,7.15
2023-03-24T19:21:07.093Z,6.68
2023-03-24T19:23:34.670Z,6.28
2023-03-24T19:26:02.476Z,6.57
2023-03-24T19:28:33.376Z,6.95
2023-03-24T19:31:07.779Z,7.15
2023-03-24T19:33:35.912Z,7.35
2023-03-24T19:36:04.552Z,7.97
2023-03-24T19:38:32.204Z,8.25
2023-03-24T19:41:08.386Z,8.00
2023-03-24T19:43:36.926Z,8.85
2023-03-24T19:46:06.323Z,7.40
2023-03-24T19:48:34.523Z,8.38
2023-03-24T19:51:01.519Z,7.97
2023-03-24T19:53:28.847Z,7.90
2023-03-24T19:55:57.984Z,7.38
2023-03-24T19:58:25.599Z,8.18
2023-03-24T20:00:53.430Z,8.55
2023-03-24T20:03:21.312Z,9.15
2023-03-24T20:05:49.814Z,8.30
2023-03-24T20:08:19.317Z,7.15
2023-03-24T20:10:46.943Z,7.30
2023-03-24T20:13:14.097Z,8.57
2023-03-24T20:15:41.209Z,6.80
2023-03-24T20:18:10.609Z,8.40
2023-03-24T20:20:37.748Z,7.25
2023-03-24T20:23:04.871Z,6.75
2023-03-24T20:25:31.814Z,7.13
2023-03-24T20:27:59.060Z,7.97
2023-03-24T20:30:28.382Z,7.43
2023-03-24T20:32:56.985Z,7.65
2023-03-24T20:35:25.185Z,6.80
2023-03-24T20:37:52.573Z,8.00
2023-03-24T20:40:20.890Z,7.55
2023-03-24T20:42:48.266Z,8.45
2023-03-24T20:45:15.592Z,7.47
2023-03-24T20:47:45.672Z,7.65
2023-03-24T20:50:13.216Z,8.82
2023-03-24T20:52:41.464Z,9.40
2023-03-24T20:55:10.049Z,14.00
2023-03-24T20:57:37.647Z,15.77
2023-03-24T21:00:14.307Z,18.08
2023-03-24T21:02:43.183Z,19.40
2023-03-24T21:05:10.652Z,22.38
2023-03-24T21:07:38.489Z,27.42
2023-03-24T21:10:06.779Z,27.50
2023-03-24T21:12:34.492Z,33.13
2023-03-24T21:15:01.569Z,34.90
2023-03-24T21:17:32.728Z,37.67
2023-03-24T21:20:08.917Z,35.95
2023-03-24T21:22:54.250Z,33.22
2023-03-24T21:25:27.858Z,29.75
2023-03-24T21:27:55.827Z,29.73
2023-03-24T21:30:25.078Z,28.80
2023-03-24T21:32:55.501Z,28.02
2023-03-24T21:35:23.813Z,28.13
2023-03-24T21:37:53.668Z,27.67
2023-03-24T21:40:23.558Z,27.23
2023-03-24T21:42:51.006Z,27.42
2023-03-24T21:45:19.867Z,27.17
2023-03-24T21:47:48.732Z,25.95
2023-03-24T21:50:23.502Z,20.15
2023-03-24T21:52:52.735Z,17.63
2023-03-24T21:55:21.938Z,23.05
2023-03-24T21:57:50.784Z,22.70
2023-03-24T22:00:21.899Z,20.40
2023-03-24T22:02:51.785Z,16.95
2023-03-24T22:05:22.335Z,14.65
2023-03-24T22:07:50.175Z,14.00
2023-03-24T22:10:23.170Z,13.43
2023-03-24T22:12:51.721Z,12.80
2023-03-24T22:15:20.077Z,13.05
2023-03-24T22:17:47.273Z,14.20
2023-03-24T22:20:14.865Z,12.18
2023-03-24T22:22:42.317Z,12.07
2023-03-24T22:25:11.834Z,10.48
2023-03-24T22:27:39.341Z,8.80
2023-03-24T22:30:08.803Z,7.28
2023-03-24T22:32:36.534Z,6.32
2023-03-24T22:35:04.085Z,5.50
2023-03-24T22:37:31.721Z,5.55
2023-03-24T22:39:58.681Z,6.28
2023-03-24T22:42:25.735Z,5.30
2023-03-24T22:44:52.700Z,5.68
2023-03-24T22:47:19.781Z,5.20
2023-03-24T22:49:48.106Z,5.50
2023-03-24T22:52:15.440Z,7.07
2023-03-24T22:54:42.435Z,5.45
2023-03-24T22:57:09.499Z,5.40
2023-03-24T22:59:36.633Z,5.75
2023-03-24T23:02:09.928Z,5.45
2023-03-24T23:04:39.766Z,5.63
2023-03-24T23:07:07.737Z,5.05
2023-03-24T23:09:34.833Z,5.20
2023-03-24T23:12:01.934Z,5.55
2023-03-24T23:14:29.117Z,4.93
2023-03-24T23:16:56.500Z,5.18
2023-03-24T23:19:23.681Z,5.72
2023-03-24T23:21:50.578Z,5.80
2023-03-24T23:24:17.643Z,5.57
2023-03-24T23:26:44.531Z,5.68
2023-03-24T23:29:11.483Z,6.20
2023-03-24T23:31:40.709Z,5.90
2023-03-24T23:34:11.415Z,5.95
2023-03-24T23:36:44.868Z,6.28
2023-03-24T23:39:12.421Z,5.85
2023-03-24T23:41:39.343Z,5.70
2023-03-24T23:44:06.380Z,6.15
2023-03-24T23:46:33.747Z,6.45
2023-03-24T23:49:01.426Z,7.50
2023-03-24T23:51:28.533Z,6.00
2023-03-24T23:53:55.463Z,6.00
2023-03-24T23:56:23.022Z,6.28
2023-03-24T23:58:50.089Z,6.25
